createdAt,value
2022-12-24T00:01:38.213Z,27.75
2022-12-24T00:04:07.458Z,27.77
2022-12-24T00:06:36.443Z,30.48
2022-12-24T00:09:05.411Z,28.45
2022-12-24T00:11:34.038Z,31.88
2022-12-24T00:14:03.699Z,27.08
2022-12-24T00:16:32.221Z,27.15
2022-12-24T00:19:00.859Z,33.78
2022-12-24T00:21:29.639Z,33.22
2022-12-24T00:23:58.360Z,29.13
2022-12-24T00:26:27.049Z,28.83
2022-12-24T00:28:56.341Z,33.20
2022-12-24T00:31:24.918Z,35.70
2022-12-24T00:33:53.887Z,29.88
2022-12-24T00:36:22.775Z,26.63
2022-12-24T00:38:51.395Z,28.33
2022-12-24T00:41:26.604Z,28.50
2022-12-24T00:44:10.291Z,28.35
2022-12-24T00:46:41.722Z,24.48
2022-12-24T00:49:12.002Z,25.83
2022-12-24T00:51:41.544Z,28.40
2022-12-24T00:54:11.297Z,30.48
2022-12-24T00:56:41.547Z,27.58
2022-12-24T00:59:12.994Z,25.80
2022-12-24T01:01:42.048Z,25.00
2022-12-24T01:04:31.018Z,27.25
2022-12-24T01:06:59.654Z,25.67
2022-12-24T01:09:30.070Z,30.58
2022-12-24T01:11:58.969Z,29.25
2022-12-24T01:14:27.823Z,23.58
2022-12-24T01:16:56.339Z,22.42
2022-12-24T01:19:25.251Z,24.90
2022-12-24T01:21:54.245Z,25.00
2022-12-24T01:24:22.970Z,28.02
2022-12-24T01:26:51.737Z,29.65
2022-12-24T01:29:20.798Z,27.35
2022-12-24T01:31:49.554Z,26.38
2022-12-24T01:34:18.462Z,28.67
2022-12-24T01:36:47.664Z,28.50
2022-12-24T01:39:16.851Z,28.60
2022-12-24T01:42:03.959Z,23.50
2022-12-24T01:44:36.891Z,29.17
2022-12-24T01:47:24.936Z,29.25
2022-12-24T01:50:02.262Z,24.63
2022-12-24T01:52:36.850Z,27.23
2022-12-24T01:55:14.176Z,30.27
2022-12-24T01:58:03.979Z,23.98
2022-12-24T02:00:32.433Z,28.80
2022-12-24T02:03:01.008Z,30.83
2022-12-24T02:05:54.327Z,31.38
2022-12-24T02:08:23.235Z,29.10
2022-12-24T02:10:51.689Z,26.90
2022-12-24T02:13:22.096Z,27.73
2022-12-24T02:16:21.776Z,27.33
2022-12-24T02:19:25.500Z,27.52
2022-12-24T02:22:11.682Z,24.85
2022-12-24T02:25:44.661Z,25.92
2022-12-24T02:28:37.422Z,28.88
2022-12-24T02:31:26.091Z,30.00
2022-12-24T02:34:18.710Z,28.60
2022-12-24T02:37:18.949Z,30.52
2022-12-24T02:39:52.920Z,29.20
2022-12-24T02:42:32.387Z,30.52
2022-12-24T02:45:11.194Z,29.52
2022-12-24T02:47:41.809Z,24.38
2022-12-24T02:50:14.357Z,26.27
2022-12-24T02:52:47.990Z,29.35
2022-12-24T02:55:56.567Z,29.95
2022-12-24T02:58:58.704Z,30.15
2022-12-24T03:04:42.559Z,29.92
2022-12-24T03:07:23.752Z,28.98
2022-12-24T03:09:57.161Z,26.42
2022-12-24T03:12:37.827Z,30.90
2022-12-24T03:15:12.504Z,29.10
2022-12-24T03:17:44.235Z,24.73
2022-12-24T03:22:43.158Z,27.40
2022-12-24T03:25:11.399Z,28.98
2022-12-24T03:27:40.966Z,27.70
2022-12-24T03:30:13.508Z,29.65
2022-12-24T03:32:42.234Z,26.98
2022-12-24T03:35:12.023Z,32.25
2022-12-24T03:37:40.332Z,31.17
2022-12-24T03:40:10.233Z,27.50
2022-12-24T03:42:38.187Z,28.85
2022-12-24T03:45:07.206Z,28.42
2022-12-24T03:47:35.589Z,27.08
2022-12-24T03:50:03.549Z,27.65
2022-12-24T03:52:31.366Z,30.75
2022-12-24T03:54:59.895Z,29.15
2022-12-24T03:57:28.073Z,26.65
2022-12-24T03:59:56.179Z,27.33
2022-12-24T04:02:25.237Z,29.17
2022-12-24T04:04:54.004Z,26.17
2022-12-24T04:07:22.237Z,28.52
2022-12-24T04:09:50.575Z,25.65
2022-12-24T04:12:18.733Z,24.95
2022-12-24T04:14:46.963Z,27.17
2022-12-24T04:17:15.437Z,24.88
2022-12-24T04:19:43.772Z,24.30
2022-12-24T04:22:11.927Z,27.00
2022-12-24T04:24:40.171Z,22.60
2022-12-24T04:27:10.827Z,29.70
2022-12-24T04:29:38.986Z,23.73
2022-12-24T04:32:07.293Z,25.40
2022-12-24T04:34:35.309Z,26.48
2022-12-24T04:37:03.600Z,28.65
2022-12-24T04:39:32.057Z,28.33
2022-12-24T04:42:00.345Z,29.08
2022-12-24T04:44:28.394Z,30.95
2022-12-24T04:46:56.719Z,22.80
2022-12-24T04:49:25.108Z,27.02
2022-12-24T04:51:53.333Z,28.52
2022-12-24T04:54:22.163Z,31.08
2022-12-24T04:56:50.260Z,29.05
2022-12-24T04:59:18.591Z,21.95
2022-12-24T05:01:47.056Z,23.63
2022-12-24T05:04:15.571Z,26.65
2022-12-24T05:06:43.452Z,28.30
2022-12-24T05:09:11.925Z,24.20
2022-12-24T05:11:39.977Z,23.60
2022-12-24T05:14:15.877Z,26.90
2022-12-24T05:16:44.627Z,27.38
2022-12-24T05:19:14.213Z,28.35
2022-12-24T05:21:42.535Z,26.30
2022-12-24T05:24:32.621Z,27.90
2022-12-24T05:27:00.638Z,30.17
2022-12-24T05:29:29.065Z,26.98
2022-12-24T05:31:57.537Z,23.67
2022-12-24T05:34:25.722Z,25.48
2022-12-24T05:36:54.224Z,28.75
2022-12-24T05:39:22.384Z,26.98
2022-12-24T05:41:50.415Z,22.92
2022-12-24T05:44:19.024Z,31.40
2022-12-24T05:46:47.434Z,23.98
2022-12-24T05:49:15.867Z,25.92
2022-12-24T05:51:44.206Z,27.83
2022-12-24T05:54:12.317Z,25.35
2022-12-24T05:56:40.701Z,26.17
2022-12-24T05:59:09.791Z,23.88
2022-12-24T06:01:38.539Z,23.35
2022-12-24T06:04:07.204Z,22.23
2022-12-24T06:06:35.685Z,22.55
2022-12-24T06:09:04.334Z,24.45
2022-12-24T06:11:32.386Z,21.50
2022-12-24T06:14:03.231Z,21.95
2022-12-24T06:16:31.500Z,22.77
2022-12-24T06:18:59.705Z,20.85
2022-12-24T06:21:28.202Z,22.95
2022-12-24T06:23:56.513Z,22.42
2022-12-24T06:26:24.955Z,21.08
2022-12-24T06:28:53.356Z,21.52
2022-12-24T06:31:23.833Z,22.17
2022-12-24T06:33:53.580Z,18.38
2022-12-24T06:36:24.898Z,24.27
2022-12-24T06:38:55.033Z,24.83
2022-12-24T06:41:24.113Z,29.10
2022-12-24T06:43:54.064Z,33.90
2022-12-24T06:46:23.046Z,33.72
2022-12-24T06:48:51.559Z,46.38
2022-12-24T06:51:21.813Z,32.63
2022-12-24T06:53:53.814Z,29.52
2022-12-24T06:56:22.408Z,24.77
2022-12-24T06:58:51.609Z,23.50
2022-12-24T07:01:21.070Z,23.67
2022-12-24T07:03:49.516Z,21.50
2022-12-24T07:06:30.863Z,19.70
2022-12-24T07:08:59.376Z,19.17
2022-12-24T07:11:28.169Z,22.88
2022-12-24T07:13:56.609Z,19.15
2022-12-24T07:16:24.932Z,20.70
2022-12-24T07:18:53.367Z,21.75
2022-12-24T07:21:22.160Z,20.67
2022-12-24T07:23:50.420Z,24.17
2022-12-24T07:26:18.918Z,23.48
2022-12-24T07:28:47.152Z,25.50
2022-12-24T07:31:15.608Z,26.25
2022-12-24T07:33:43.930Z,25.65
2022-12-24T07:36:21.722Z,22.40
2022-12-24T07:38:51.269Z,23.55
2022-12-24T07:41:21.219Z,20.38
2022-12-24T07:43:50.333Z,19.77
2022-12-24T07:46:19.317Z,18.50
2022-12-24T07:48:48.363Z,19.23
2022-12-24T07:51:17.393Z,18.88
2022-12-24T07:53:48.166Z,17.92
2022-12-24T07:56:17.204Z,18.48
2022-12-24T07:58:45.999Z,20.00
2022-12-24T08:01:14.477Z,18.85
2022-12-24T08:03:43.155Z,20.58
2022-12-24T08:06:12.385Z,17.08
2022-12-24T08:08:40.751Z,21.65
2022-12-24T08:11:09.119Z,23.90
2022-12-24T08:13:37.483Z,19.33
2022-12-24T08:16:06.998Z,24.48
2022-12-24T08:18:35.507Z,24.10
2022-12-24T08:21:07.252Z,20.77
2022-12-24T08:23:39.024Z,19.73
2022-12-24T08:28:38.030Z,22.17
2022-12-24T08:31:07.140Z,18.55
2022-12-24T08:33:36.137Z,16.13
2022-12-24T08:36:06.096Z,19.30
2022-12-24T08:38:34.815Z,17.10
2022-12-24T08:41:03.303Z,17.73
2022-12-24T08:43:31.983Z,19.27
2022-12-24T08:46:06.469Z,20.95
2022-12-24T08:48:35.480Z,19.02
2022-12-24T08:51:10.311Z,17.67
2022-12-24T08:53:40.324Z,19.77
2022-12-24T08:56:10.557Z,18.52
2022-12-24T08:58:39.683Z,20.42
2022-12-24T09:01:17.976Z,19.15
2022-12-24T09:03:47.334Z,19.27
2022-12-24T09:06:16.911Z,20.73
2022-12-24T09:08:45.926Z,16.10
2022-12-24T09:11:18.128Z,18.63
2022-12-24T09:13:46.902Z,18.27
2022-12-24T09:16:15.623Z,15.38
2022-12-24T09:18:44.438Z,17.48
2022-12-24T09:21:16.447Z,17.30
2022-12-24T09:23:47.563Z,16.50
2022-12-24T09:26:21.389Z,16.15
2022-12-24T09:28:52.017Z,15.07
2022-12-24T09:31:22.172Z,20.17
2022-12-24T09:33:51.793Z,17.48
2022-12-24T09:36:22.403Z,18.95
2022-12-24T09:38:51.900Z,17.08
2022-12-24T09:42:19.977Z,17.95
2022-12-24T09:45:03.342Z,16.95
2022-12-24T09:47:50.165Z,21.30
2022-12-24T09:50:37.715Z,16.63
2022-12-24T09:53:21.831Z,15.43
2022-12-24T09:55:56.771Z,15.88
2022-12-24T09:58:49.200Z,17.35
2022-12-24T10:01:20.094Z,20.48
2022-12-24T10:03:48.829Z,19.90
2022-12-24T10:06:30.225Z,15.40
2022-12-24T10:09:04.044Z,19.98
2022-12-24T10:12:05.957Z,16.80
2022-12-24T10:15:02.045Z,17.48
2022-12-24T10:17:52.757Z,18.13
2022-12-24T10:20:41.476Z,13.50
2022-12-24T10:24:00.854Z,16.30
2022-12-24T10:26:46.973Z,16.23
2022-12-24T10:29:23.806Z,15.50
2022-12-24T10:32:06.089Z,19.48
2022-12-24T10:34:50.051Z,25.58
2022-12-24T10:37:25.289Z,23.02
2022-12-24T10:39:54.515Z,18.30
2022-12-24T10:42:34.341Z,19.13
2022-12-24T10:45:09.447Z,17.48
2022-12-24T10:47:41.025Z,19.55
2022-12-24T10:51:00.179Z,14.48
2022-12-24T10:53:54.678Z,15.82
2022-12-24T10:56:23.344Z,17.55
2022-12-24T10:58:55.796Z,18.52
2022-12-24T11:01:50.195Z,21.60
2022-12-24T11:04:22.981Z,16.80
2022-12-24T11:07:03.437Z,23.50
2022-12-24T11:09:36.423Z,22.25
2022-12-24T11:12:22.239Z,22.83
2022-12-24T11:15:19.050Z,22.85
2022-12-24T11:18:06.622Z,15.90
2022-12-24T11:20:35.777Z,17.55
2022-12-24T11:23:03.927Z,20.90
2022-12-24T11:25:37.781Z,39.13
2022-12-24T11:28:30.501Z,22.27
2022-12-24T11:31:04.255Z,23.95
2022-12-24T11:33:46.051Z,33.42
2022-12-24T11:38:52.191Z,52.95
2022-12-24T11:41:20.436Z,93.55
2022-12-24T11:43:52.464Z,71.13
2022-12-24T11:46:52.631Z,39.60
2022-12-24T11:49:31.297Z,38.28
2022-12-24T11:52:13.283Z,32.00
2022-12-24T11:55:13.771Z,27.90
2022-12-24T11:58:24.032Z,30.23
2022-12-24T12:01:01.018Z,29.20
2022-12-24T12:04:14.511Z,29.90
2022-12-24T12:06:50.793Z,27.55
2022-12-24T12:09:26.138Z,32.80
2022-12-24T12:12:27.681Z,28.80
2022-12-24T12:15:14.412Z,30.38
2022-12-24T12:17:59.896Z,30.88
2022-12-24T12:20:43.244Z,32.35
2022-12-24T12:23:25.141Z,36.20
2022-12-24T12:26:26.287Z,44.10
2022-12-24T12:29:06.336Z,46.05
2022-12-24T12:31:48.762Z,44.30
2022-12-24T12:34:29.906Z,47.72
2022-12-24T12:37:12.641Z,43.55
2022-12-24T12:39:44.204Z,46.65
2022-12-24T12:42:37.138Z,45.70
2022-12-24T12:45:39.988Z,46.42
2022-12-24T12:48:45.636Z,50.13
2022-12-24T12:51:40.551Z,51.78
2022-12-24T12:54:51.947Z,37.45
2022-12-24T12:57:26.789Z,45.30
2022-12-24T13:00:02.544Z,45.53
2022-12-24T13:02:46.744Z,38.75
2022-12-24T13:05:55.668Z,44.22
2022-12-24T13:09:10.183Z,45.58
2022-12-24T13:12:23.612Z,37.92
2022-12-24T13:15:03.232Z,40.40
2022-12-24T13:17:55.440Z,55.22
2022-12-24T13:20:37.119Z,27.15
2022-12-24T13:23:17.647Z,21.00
2022-12-24T13:25:53.572Z,23.85
2022-12-24T13:28:25.653Z,29.17
2022-12-24T13:31:20.277Z,27.08
2022-12-24T13:33:55.260Z,29.10
2022-12-24T13:36:24.494Z,30.60
2022-12-24T13:39:00.406Z,30.67
2022-12-24T13:41:42.029Z,34.05
2022-12-24T13:44:13.850Z,33.83
2022-12-24T13:47:05.015Z,40.85
2022-12-24T13:49:53.178Z,44.77
2022-12-24T13:52:40.669Z,44.05
2022-12-24T13:55:17.923Z,37.67
2022-12-24T13:58:05.840Z,33.25
2022-12-24T14:01:01.601Z,38.38
2022-12-24T14:03:46.234Z,44.15
2022-12-24T14:06:29.911Z,52.05
2022-12-24T14:09:19.874Z,52.50
2022-12-24T14:11:56.319Z,61.55
2022-12-24T14:14:39.800Z,54.75
2022-12-24T14:17:23.952Z,56.40
2022-12-24T14:20:01.547Z,54.25
2022-12-24T14:22:38.138Z,50.47
2022-12-24T14:25:23.005Z,47.58
2022-12-24T14:28:24.414Z,47.40
2022-12-24T14:31:06.707Z,44.67
2022-12-24T14:33:36.683Z,48.17
2022-12-24T14:36:05.483Z,39.20
2022-12-24T14:38:34.723Z,42.65
2022-12-24T14:41:34.227Z,44.92
2022-12-24T14:44:11.274Z,46.92
2022-12-24T14:46:59.139Z,64.15
2022-12-24T14:50:11.925Z,69.53
2022-12-24T14:53:06.263Z,68.80
2022-12-24T14:55:41.947Z,76.75
2022-12-24T14:58:46.835Z,70.25
2022-12-24T15:01:24.440Z,70.55
2022-12-24T15:04:06.300Z,65.35
2022-12-24T15:06:58.511Z,88.32
2022-12-24T15:09:31.213Z,73.00
2022-12-24T15:12:03.598Z,68.82
2022-12-24T15:14:43.199Z,64.70
2022-12-24T15:17:13.575Z,70.72
2022-12-24T15:19:46.015Z,76.00
2022-12-24T15:22:30.437Z,81.50
2022-12-24T15:24:58.650Z,82.50
2022-12-24T15:27:33.381Z,74.70
2022-12-24T15:30:14.614Z,75.28
2022-12-24T15:32:43.136Z,72.20
2022-12-24T15:35:55.647Z,64.65
2022-12-24T15:38:36.770Z,65.22
2022-12-24T15:41:17.466Z,66.95
2022-12-24T15:43:47.596Z,65.05
2022-12-24T15:46:28.362Z,69.38
2022-12-24T15:49:00.607Z,61.20
2022-12-24T15:51:36.963Z,65.22
2022-12-24T15:54:16.348Z,52.90
2022-12-24T15:56:46.699Z,54.65
2022-12-24T15:59:38.261Z,53.65
2022-12-24T16:02:36.750Z,57.83
2022-12-24T16:05:31.871Z,50.50
2022-12-24T16:08:17.472Z,67.95
2022-12-24T16:10:52.150Z,59.35
2022-12-24T16:13:34.929Z,57.03
2022-12-24T16:16:22.840Z,53.40
2022-12-24T16:19:00.785Z,59.53
2022-12-24T16:21:35.480Z,61.00
2022-12-24T16:24:24.783Z,63.92
2022-12-24T16:26:54.922Z,75.38
2022-12-24T16:29:24.252Z,74.82
2022-12-24T16:31:57.964Z,73.68
2022-12-24T16:34:30.993Z,73.35
2022-12-24T16:37:02.034Z,74.88
2022-12-24T16:39:35.110Z,66.40
2022-12-24T16:42:23.717Z,66.53
2022-12-24T16:44:54.385Z,64.07
2022-12-24T16:47:33.626Z,60.53
2022-12-24T16:50:07.907Z,62.22
2022-12-24T16:52:37.515Z,56.20
2022-12-24T16:55:06.169Z,58.90
2022-12-24T16:57:34.964Z,51.78
2022-12-24T17:00:07.862Z,53.60
2022-12-24T17:02:36.810Z,62.92
2022-12-24T17:05:06.169Z,56.28
2022-12-24T17:07:38.321Z,57.65
2022-12-24T17:10:14.264Z,55.28
2022-12-24T17:12:44.574Z,58.00
2022-12-24T17:15:12.912Z,54.67
2022-12-24T17:17:41.472Z,63.33
2022-12-24T17:20:16.684Z,75.43
2022-12-24T17:22:47.523Z,64.20
2022-12-24T17:25:16.995Z,64.75
2022-12-24T17:27:45.591Z,65.40
2022-12-24T17:30:14.218Z,60.00
2022-12-24T17:32:43.225Z,55.42
2022-12-24T17:35:11.587Z,54.63
2022-12-24T17:37:39.496Z,62.67
2022-12-24T17:40:09.374Z,56.95
2022-12-24T17:42:37.750Z,56.42
2022-12-24T17:45:07.119Z,61.88
2022-12-24T17:47:35.859Z,64.95
2022-12-24T17:50:04.691Z,61.08
2022-12-24T17:52:34.848Z,51.22
2022-12-24T17:55:03.695Z,60.72
2022-12-24T17:57:32.151Z,61.80
2022-12-24T18:00:00.420Z,59.58
2022-12-24T18:02:30.789Z,67.05
2022-12-24T18:04:59.329Z,56.55
2022-12-24T18:07:27.669Z,61.67
2022-12-24T18:09:55.983Z,60.08
2022-12-24T18:12:24.156Z,65.63
2022-12-24T18:14:52.115Z,57.72
2022-12-24T18:17:20.525Z,60.03
2022-12-24T18:19:49.011Z,55.10
2022-12-24T18:22:17.042Z,60.75
2022-12-24T18:24:45.612Z,60.83
2022-12-24T18:27:13.926Z,58.60
2022-12-24T18:29:42.748Z,56.88
2022-12-24T18:32:13.178Z,47.22
2022-12-24T18:34:41.428Z,54.45
2022-12-24T18:37:09.808Z,51.20
2022-12-24T18:39:38.595Z,49.63
2022-12-24T18:42:06.988Z,48.75
2022-12-24T18:44:35.411Z,51.05
2022-12-24T18:47:03.793Z,53.83
2022-12-24T18:49:32.687Z,55.42
2022-12-24T18:52:05.714Z,54.30
2022-12-24T18:54:34.514Z,53.38
2022-12-24T18:57:04.000Z,55.38
2022-12-24T18:59:32.774Z,65.47
2022-12-24T19:02:01.563Z,62.08
2022-12-24T19:04:30.131Z,72.32
2022-12-24T19:07:00.619Z,68.72
2022-12-24T19:09:28.877Z,71.00
2022-12-24T19:11:57.693Z,63.25
2022-12-24T19:14:26.163Z,62.97
2022-12-24T19:16:54.619Z,69.72
2022-12-24T19:19:24.771Z,73.22
2022-12-24T19:21:53.546Z,62.55
2022-12-24T19:24:22.396Z,56.97
2022-12-24T19:26:50.718Z,59.15
2022-12-24T19:29:19.686Z,55.92
2022-12-24T19:31:48.365Z,54.13
2022-12-24T19:34:16.847Z,66.90
2022-12-24T19:36:45.093Z,51.97
2022-12-24T19:39:13.267Z,51.95
2022-12-24T19:41:41.617Z,61.65
2022-12-24T19:44:13.709Z,59.25
2022-12-24T19:46:41.953Z,55.80
2022-12-24T19:49:12.724Z,53.72
2022-12-24T19:51:41.710Z,53.45
2022-12-24T19:54:18.754Z,49.05
2022-12-24T19:56:47.967Z,52.53
2022-12-24T19:59:16.467Z,49.15
2022-12-24T20:01:45.131Z,48.55
2022-12-24T20:04:15.184Z,55.17
2022-12-24T20:06:43.677Z,50.53
2022-12-24T20:09:12.938Z,45.25
2022-12-24T20:11:41.278Z,53.10
2022-12-24T20:14:11.435Z,48.95
2022-12-24T20:16:40.130Z,50.15
2022-12-24T20:19:10.624Z,50.50
2022-12-24T20:21:38.767Z,47.78
2022-12-24T20:24:07.672Z,38.95
2022-12-24T20:26:36.505Z,46.17
2022-12-24T20:29:10.188Z,46.85
2022-12-24T20:31:39.267Z,49.33
2022-12-24T20:34:08.939Z,42.63
2022-12-24T20:36:37.744Z,38.03
2022-12-24T20:39:07.288Z,43.25
2022-12-24T20:41:36.904Z,40.97
2022-12-24T20:44:05.503Z,44.83
2022-12-24T20:46:34.231Z,38.33
2022-12-24T20:49:02.503Z,34.10
2022-12-24T20:51:30.992Z,38.45
2022-12-24T20:54:02.231Z,41.65
2022-12-24T20:56:31.839Z,47.05
2022-12-24T20:59:01.451Z,36.08
2022-12-24T21:01:30.506Z,44.75
2022-12-24T21:04:04.968Z,40.60
2022-12-24T21:06:35.396Z,36.78
2022-12-24T21:09:06.281Z,38.38
2022-12-24T21:11:50.353Z,43.65
2022-12-24T21:14:28.478Z,40.97
2022-12-24T21:16:56.989Z,42.90
2022-12-24T21:19:25.928Z,47.20
2022-12-24T21:21:55.602Z,42.58
2022-12-24T21:24:25.406Z,44.90
2022-12-24T21:26:53.927Z,40.85
2022-12-24T21:29:22.642Z,48.88
2022-12-24T21:31:51.882Z,41.95
2022-12-24T21:34:20.329Z,45.65
2022-12-24T21:36:48.706Z,39.92
2022-12-24T21:39:18.207Z,46.25
2022-12-24T21:41:46.915Z,48.33
2022-12-24T21:44:15.135Z,41.45
2022-12-24T21:46:44.036Z,39.92
2022-12-24T21:49:31.243Z,43.75
2022-12-24T21:52:00.013Z,41.85
2022-12-24T21:54:30.858Z,46.88
2022-12-24T21:57:21.513Z,45.77
2022-12-24T21:59:55.110Z,42.92
2022-12-24T22:02:29.200Z,51.50
2022-12-24T22:04:57.529Z,42.95
2022-12-24T22:07:47.320Z,44.92
2022-12-24T22:10:34.359Z,42.80
2022-12-24T22:13:07.726Z,41.00
2022-12-24T22:15:50.386Z,40.45
2022-12-24T22:18:22.327Z,44.25
2022-12-24T22:20:52.085Z,42.28
2022-12-24T22:23:20.477Z,46.75
2022-12-24T22:25:49.193Z,41.47
2022-12-24T22:28:17.604Z,43.13
2022-12-24T22:30:46.989Z,45.42
2022-12-24T22:33:15.765Z,38.95
2022-12-24T22:35:44.469Z,40.97
2022-12-24T22:38:13.460Z,41.63
2022-12-24T22:40:43.175Z,38.30
2022-12-24T22:43:12.260Z,36.53
2022-12-24T22:45:41.248Z,38.33
2022-12-24T22:48:11.735Z,37.20
2022-12-24T22:50:41.207Z,37.20
2022-12-24T22:53:10.015Z,37.70
2022-12-24T22:55:38.412Z,40.22
2022-12-24T22:58:07.190Z,38.83
2022-12-24T23:00:45.081Z,30.80
2022-12-24T23:03:14.251Z,34.33
2022-12-24T23:05:43.150Z,36.42
2022-12-24T23:08:13.100Z,38.15
2022-12-24T23:10:42.193Z,29.83
2022-12-24T23:13:31.969Z,33.45
2022-12-24T23:16:07.755Z,35.58
2022-12-24T23:18:39.223Z,49.45
2022-12-24T23:21:08.782Z,50.60
2022-12-24T23:23:37.637Z,59.95
2022-12-24T23:26:10.233Z,52.03
2022-12-24T23:28:39.300Z,47.20
2022-12-24T23:31:09.027Z,35.20
2022-12-24T23:33:37.872Z,42.75
2022-12-24T23:36:07.609Z,37.40
2022-12-24T23:38:36.391Z,37.67
2022-12-24T23:41:08.808Z,34.50
2022-12-24T23:43:38.533Z,41.97
2022-12-24T23:46:07.475Z,36.72
2022-12-24T23:48:36.381Z,33.97
2022-12-24T23:51:27.297Z,36.03
2022-12-24T23:53:57.567Z,31.63
2022-12-24T23:56:26.886Z,38.00
2022-12-24T23:58:56.213Z,38.95
